CPA449 RCKH-VHHX
Flight info
| Callsign | CPA449 |
|---|---|
| Flight time | 1h 24m |
| Altitude | 32000 |
| Route | PARAS2A/09 PARAS T7 WP521 G581 MAGOG |
| Aircraft | B77W/H-SDE1E2E3FGHIJ2J3J4J5M1RWXY/LB1D1 |
Departure
| Time | 2026-04-24 14:56 |
|---|---|
| Airport | Kaohsiung International Airport (RCKH) |
Arrival
| Time | 2026-04-24 16:20 |
|---|---|
| Airport | Hong Kong International Airport Kai Tak (VHHX) |
| Time | Latitude | Longitude | Altitude | Speed | Heading |
|---|---|---|---|---|---|
| 2026-04-24 14:46 | 22.57300 | 120.34057 | 43 ft | 3 kts | 29° |
| 2026-04-24 14:46 | 22.57283 | 120.34050 | 42 ft | 0 kts | 2° |
| 2026-04-24 14:51 | 22.57287 | 120.34050 | 42 ft | 2 kts | 2° |
| 2026-04-24 14:51 | 22.57322 | 120.34052 | 43 ft | 8 kts | 1° |
| 2026-04-24 14:51 | 22.57373 | 120.34048 | 43 ft | 6 kts | 340° |
| 2026-04-24 14:52 | 22.57402 | 120.34015 | 43 ft | 6 kts | 295° |
| 2026-04-24 14:52 | 22.57410 | 120.33967 | 43 ft | 7 kts | 272° |
| 2026-04-24 14:52 | 22.57412 | 120.33913 | 43 ft | 7 kts | 272° |
| 2026-04-24 14:52 | 22.57414 | 120.33854 | 43 ft | 8 kts | 271° |
| 2026-04-24 14:53 | 22.57416 | 120.33794 | 43 ft | 8 kts | 271° |
| 2026-04-24 14:53 | 22.57418 | 120.33729 | 43 ft | 9 kts | 275° |
| 2026-04-24 14:53 | 22.57445 | 120.33671 | 43 ft | 9 kts | 310° |
| 2026-04-24 14:53 | 22.57490 | 120.33623 | 43 ft | 9 kts | 316° |
| 2026-04-24 14:54 | 22.57537 | 120.33574 | 43 ft | 9 kts | 316° |
| 2026-04-24 14:54 | 22.57588 | 120.33527 | 43 ft | 10 kts | 323° |
| 2026-04-24 14:54 | 22.57653 | 120.33504 | 42 ft | 10 kts | 356° |
| 2026-04-24 14:54 | 22.57722 | 120.33516 | 42 ft | 10 kts | 28° |
| 2026-04-24 14:55 | 22.57748 | 120.33559 | 42 ft | 10 kts | 76° |
| 2026-04-24 14:55 | 22.57749 | 120.33665 | 43 ft | 11 kts | 91° |
| 2026-04-24 14:55 | 22.57745 | 120.33828 | 44 ft | 40 kts | 92° |
| 2026-04-24 14:55 | 22.57722 | 120.34539 | 43 ft | 155 kts | 91° |
| 2026-04-24 14:56 | 22.57685 | 120.36071 | 473 ft | 231 kts | 93° |
| 2026-04-24 14:56 | 22.57599 | 120.37827 | 2246 ft | 230 kts | 94° |
| 2026-04-24 14:56 | 22.57364 | 120.39525 | 3830 ft | 233 kts | 112° |
| 2026-04-24 14:56 | 22.56341 | 120.41003 | 4173 ft | 267 kts | 146° |
| 2026-04-24 14:57 | 22.54583 | 120.41567 | 5045 ft | 266 kts | 185° |
| 2026-04-24 14:57 | 22.52856 | 120.40996 | 5563 ft | 266 kts | 216° |
| 2026-04-24 14:57 | 22.51644 | 120.39586 | 5865 ft | 242 kts | 247° |
| 2026-04-24 14:57 | 22.51051 | 120.37938 | 6815 ft | 239 kts | 244° |
| 2026-04-24 14:58 | 22.50052 | 120.36340 | 6961 ft | 272 kts | 231° |
| 2026-04-24 14:58 | 22.48759 | 120.34801 | 6932 ft | 277 kts | 227° |
| 2026-04-24 14:58 | 22.47415 | 120.33329 | 6952 ft | 271 kts | 226° |
| 2026-04-24 14:58 | 22.46074 | 120.31903 | 7284 ft | 270 kts | 225° |
| 2026-04-24 14:59 | 22.44727 | 120.30486 | 8389 ft | 271 kts | 225° |
| 2026-04-24 14:59 | 22.43392 | 120.29088 | 9526 ft | 271 kts | 225° |
| 2026-04-24 14:59 | 22.42027 | 120.27660 | 10495 ft | 278 kts | 225° |
| 2026-04-24 14:59 | 22.40581 | 120.26147 | 10950 ft | 304 kts | 225° |
| 2026-04-24 15:00 | 22.38979 | 120.24469 | 11193 ft | 336 kts | 225° |
| 2026-04-24 15:00 | 22.37246 | 120.22657 | 11754 ft | 354 kts | 225° |
| 2026-04-24 15:00 | 22.35453 | 120.20785 | 12633 ft | 362 kts | 225° |
| 2026-04-24 15:00 | 22.33635 | 120.18888 | 13671 ft | 365 kts | 225° |
| 2026-04-24 15:01 | 22.31802 | 120.16974 | 14611 ft | 368 kts | 225° |
| 2026-04-24 15:01 | 22.30052 | 120.14960 | 15291 ft | 368 kts | 234° |
| 2026-04-24 15:01 | 22.28993 | 120.12419 | 15904 ft | 378 kts | 256° |
| 2026-04-24 15:01 | 22.28517 | 120.09684 | 16545 ft | 380 kts | 257° |
| 2026-04-24 15:02 | 22.27939 | 120.06864 | 17864 ft | 387 kts | 255° |
| 2026-04-24 15:02 | 22.27300 | 120.04012 | 18583 ft | 394 kts | 256° |
| 2026-04-24 15:02 | 22.26705 | 120.01282 | 19169 ft | 405 kts | 257° |
| 2026-04-24 15:02 | 22.26066 | 119.98293 | 19916 ft | 412 kts | 257° |
| 2026-04-24 15:03 | 22.25637 | 119.96286 | 20466 ft | 415 kts | 257° |
| 2026-04-24 15:03 | 22.24764 | 119.92193 | 20713 ft | 420 kts | 256° |
| 2026-04-24 15:03 | 22.24125 | 119.89202 | 22220 ft | 403 kts | 256° |
| 2026-04-24 15:03 | 22.23491 | 119.86254 | 23073 ft | 405 kts | 256° |
| 2026-04-24 15:04 | 22.22856 | 119.83305 | 23616 ft | 413 kts | 256° |
| 2026-04-24 15:04 | 22.22203 | 119.80267 | 24124 ft | 417 kts | 256° |
| 2026-04-24 15:04 | 22.21546 | 119.77205 | 24682 ft | 420 kts | 256° |
| 2026-04-24 15:04 | 22.20882 | 119.74123 | 25237 ft | 423 kts | 256° |
| 2026-04-24 15:05 | 22.20209 | 119.71021 | 25768 ft | 426 kts | 256° |
| 2026-04-24 15:05 | 22.19523 | 119.67894 | 26277 ft | 430 kts | 256° |
| 2026-04-24 15:05 | 22.18831 | 119.64742 | 26782 ft | 433 kts | 256° |
| 2026-04-24 15:05 | 22.18134 | 119.61565 | 27291 ft | 437 kts | 256° |
| 2026-04-24 15:06 | 22.17441 | 119.58408 | 27793 ft | 440 kts | 256° |
| 2026-04-24 15:06 | 22.16739 | 119.55193 | 28291 ft | 443 kts | 257° |
| 2026-04-24 15:06 | 22.16189 | 119.51916 | 28818 ft | 445 kts | 261° |
| 2026-04-24 15:06 | 22.15929 | 119.48588 | 29368 ft | 447 kts | 266° |
| 2026-04-24 15:07 | 22.15897 | 119.45224 | 29800 ft | 450 kts | 267° |
| 2026-04-24 15:07 | 22.15835 | 119.41834 | 30142 ft | 454 kts | 266° |
| 2026-04-24 15:07 | 22.15745 | 119.38430 | 30562 ft | 454 kts | 266° |
| 2026-04-24 15:07 | 22.15646 | 119.35036 | 31096 ft | 451 kts | 266° |
| 2026-04-24 15:08 | 22.15549 | 119.31711 | 31662 ft | 448 kts | 266° |
| 2026-04-24 15:08 | 22.15452 | 119.28352 | 32056 ft | 450 kts | 266° |
| 2026-04-24 15:08 | 22.15354 | 119.24950 | 32018 ft | 456 kts | 266° |
| 2026-04-24 15:09 | 22.15165 | 119.18152 | 32024 ft | 449 kts | 266° |
| 2026-04-24 15:09 | 22.14975 | 119.11436 | 32041 ft | 449 kts | 266° |
| 2026-04-24 15:10 | 22.15363 | 119.04733 | 32047 ft | 453 kts | 276° |
| 2026-04-24 15:10 | 22.16292 | 118.98019 | 32041 ft | 453 kts | 274° |
| 2026-04-24 15:11 | 22.17085 | 118.91275 | 32051 ft | 453 kts | 274° |
| 2026-04-24 15:11 | 22.17882 | 118.84535 | 32047 ft | 453 kts | 274° |
| 2026-04-24 15:12 | 22.18684 | 118.77808 | 32042 ft | 452 kts | 274° |
| 2026-04-24 15:12 | 22.19878 | 118.67781 | 32035 ft | 451 kts | 274° |
| 2026-04-24 15:13 | 22.20672 | 118.61072 | 32048 ft | 450 kts | 274° |
| 2026-04-24 15:13 | 22.21461 | 118.54389 | 32036 ft | 449 kts | 274° |
| 2026-04-24 15:14 | 22.22241 | 118.47722 | 32032 ft | 448 kts | 274° |
| 2026-04-24 15:14 | 22.23010 | 118.41099 | 32034 ft | 448 kts | 274° |
| 2026-04-24 15:15 | 22.23781 | 118.34442 | 32050 ft | 447 kts | 274° |
| 2026-04-24 15:15 | 22.24549 | 118.27788 | 32039 ft | 446 kts | 274° |
| 2026-04-24 15:16 | 22.25314 | 118.21140 | 32037 ft | 446 kts | 274° |
| 2026-04-24 15:16 | 22.26076 | 118.14490 | 32044 ft | 446 kts | 274° |
| 2026-04-24 15:17 | 22.26798 | 118.07891 | 32055 ft | 445 kts | 273° |
| 2026-04-24 15:17 | 22.27500 | 118.01244 | 32045 ft | 446 kts | 273° |
| 2026-04-24 15:18 | 22.28238 | 117.94597 | 32042 ft | 446 kts | 274° |
| 2026-04-24 15:18 | 22.29009 | 117.87946 | 32044 ft | 446 kts | 274° |
| 2026-04-24 15:19 | 22.29766 | 117.81346 | 32041 ft | 447 kts | 274° |
| 2026-04-24 15:19 | 22.30523 | 117.74688 | 32042 ft | 447 kts | 273° |
| 2026-04-24 15:20 | 22.31275 | 117.68033 | 32045 ft | 447 kts | 273° |
| 2026-04-24 15:20 | 22.32026 | 117.61369 | 32042 ft | 447 kts | 273° |
| 2026-04-24 15:21 | 22.32770 | 117.54741 | 32047 ft | 447 kts | 273° |
| 2026-04-24 15:21 | 22.33328 | 117.48070 | 32040 ft | 444 kts | 267° |
| 2026-04-24 15:22 | 22.33142 | 117.41425 | 32043 ft | 443 kts | 266° |
| 2026-04-24 15:23 | 22.32963 | 117.31461 | 32045 ft | 442 kts | 266° |
| 2026-04-24 15:23 | 22.32791 | 117.21559 | 32045 ft | 441 kts | 266° |
| 2026-04-24 15:25 | 22.32497 | 117.06134 | 32039 ft | 439 kts | 266° |
| 2026-04-24 15:26 | 22.32143 | 116.88608 | 32043 ft | 438 kts | 265° |
| 2026-04-24 15:27 | 22.31720 | 116.68852 | 32041 ft | 438 kts | 266° |
| 2026-04-24 15:29 | 22.31287 | 116.49598 | 32045 ft | 427 kts | 266° |
| 2026-04-24 15:31 | 22.30783 | 116.28355 | 32046 ft | 423 kts | 266° |
| 2026-04-24 15:33 | 22.30142 | 116.02893 | 32051 ft | 426 kts | 266° |
| 2026-04-24 15:34 | 22.29719 | 115.86895 | 32051 ft | 426 kts | 266° |
| 2026-04-24 15:35 | 22.29296 | 115.71078 | 32047 ft | 417 kts | 266° |
| 2026-04-24 15:36 | 22.29131 | 115.64819 | 32047 ft | 417 kts | 266° |
| 2026-04-24 15:36 | 22.28886 | 115.55485 | 32049 ft | 415 kts | 265° |
| 2026-04-24 15:37 | 22.28778 | 115.52375 | 31318 ft | 418 kts | 265° |
| 2026-04-24 15:37 | 22.28632 | 115.49220 | 30574 ft | 421 kts | 264° |
| 2026-04-24 15:37 | 22.28478 | 115.46084 | 29962 ft | 418 kts | 264° |
| 2026-04-24 15:37 | 22.28326 | 115.42957 | 29260 ft | 415 kts | 264° |
| 2026-04-24 15:38 | 22.28180 | 115.39856 | 28642 ft | 412 kts | 264° |
| 2026-04-24 15:38 | 22.28037 | 115.36778 | 28035 ft | 408 kts | 265° |
| 2026-04-24 15:38 | 22.27897 | 115.33725 | 27421 ft | 405 kts | 265° |
| 2026-04-24 15:38 | 22.27759 | 115.30698 | 26855 ft | 403 kts | 265° |
| 2026-04-24 15:39 | 22.27620 | 115.27682 | 26292 ft | 401 kts | 265° |
| 2026-04-24 15:39 | 22.27484 | 115.24726 | 25735 ft | 400 kts | 265° |
| 2026-04-24 15:39 | 22.27345 | 115.21737 | 25160 ft | 399 kts | 265° |
| 2026-04-24 15:39 | 22.27206 | 115.18744 | 24602 ft | 398 kts | 265° |
| 2026-04-24 15:40 | 22.27067 | 115.15764 | 24043 ft | 398 kts | 265° |
| 2026-04-24 15:40 | 22.26862 | 115.12789 | 23426 ft | 396 kts | 261° |
| 2026-04-24 15:40 | 22.26384 | 115.09872 | 22797 ft | 394 kts | 257° |
| 2026-04-24 15:40 | 22.25796 | 115.06987 | 22231 ft | 392 kts | 257° |
| 2026-04-24 15:41 | 22.25212 | 115.04121 | 21682 ft | 389 kts | 257° |
| 2026-04-24 15:41 | 22.24663 | 115.01277 | 21128 ft | 387 kts | 258° |
| 2026-04-24 15:41 | 22.24143 | 114.98441 | 20585 ft | 384 kts | 259° |
| 2026-04-24 15:41 | 22.23642 | 114.95656 | 20042 ft | 382 kts | 259° |
| 2026-04-24 15:42 | 22.23149 | 114.92846 | 19490 ft | 379 kts | 261° |
| 2026-04-24 15:42 | 22.22916 | 114.90036 | 18974 ft | 376 kts | 268° |
| 2026-04-24 15:42 | 22.22902 | 114.87211 | 18442 ft | 375 kts | 270° |
| 2026-04-24 15:42 | 22.22940 | 114.84398 | 17853 ft | 375 kts | 270° |
| 2026-04-24 15:43 | 22.22967 | 114.81603 | 17302 ft | 373 kts | 270° |
| 2026-04-24 15:43 | 22.22973 | 114.78836 | 16760 ft | 361 kts | 270° |
| 2026-04-24 15:43 | 22.22961 | 114.76196 | 16261 ft | 343 kts | 269° |
| 2026-04-24 15:43 | 22.22939 | 114.73664 | 15587 ft | 333 kts | 269° |
| 2026-04-24 15:44 | 22.22912 | 114.71170 | 14652 ft | 332 kts | 269° |
| 2026-04-24 15:44 | 22.22884 | 114.68713 | 13676 ft | 333 kts | 269° |
| 2026-04-24 15:44 | 22.22853 | 114.66182 | 12858 ft | 341 kts | 269° |
| 2026-04-24 15:44 | 22.22822 | 114.63634 | 12447 ft | 337 kts | 269° |
| 2026-04-24 15:45 | 22.22791 | 114.61134 | 12124 ft | 331 kts | 269° |
| 2026-04-24 15:45 | 22.22759 | 114.58668 | 11741 ft | 327 kts | 269° |
| 2026-04-24 15:45 | 22.22728 | 114.56219 | 11298 ft | 326 kts | 269° |
| 2026-04-24 15:45 | 22.22696 | 114.53781 | 10862 ft | 325 kts | 268° |
| 2026-04-24 15:46 | 22.22665 | 114.51399 | 10914 ft | 312 kts | 268° |
| 2026-04-24 15:46 | 22.22633 | 114.49034 | 10974 ft | 321 kts | 268° |
| 2026-04-24 15:46 | 22.22600 | 114.46593 | 11022 ft | 328 kts | 268° |
| 2026-04-24 15:46 | 22.22566 | 114.44128 | 11022 ft | 329 kts | 268° |
| 2026-04-24 15:47 | 22.22533 | 114.41713 | 11026 ft | 328 kts | 268° |
| 2026-04-24 15:47 | 22.22499 | 114.39235 | 11024 ft | 328 kts | 268° |
| 2026-04-24 15:47 | 22.22464 | 114.36784 | 11026 ft | 327 kts | 269° |
| 2026-04-24 15:47 | 22.22429 | 114.34335 | 10973 ft | 325 kts | 269° |
| 2026-04-24 15:48 | 22.22395 | 114.31898 | 10655 ft | 323 kts | 269° |
| 2026-04-24 15:48 | 22.22360 | 114.29475 | 10238 ft | 322 kts | 269° |
| 2026-04-24 15:48 | 22.22325 | 114.27065 | 9783 ft | 322 kts | 268° |
| 2026-04-24 15:48 | 22.22289 | 114.24651 | 9312 ft | 320 kts | 268° |
| 2026-04-24 15:49 | 22.22253 | 114.22258 | 8904 ft | 318 kts | 268° |
| 2026-04-24 15:49 | 22.22218 | 114.19885 | 8495 ft | 315 kts | 268° |
| 2026-04-24 15:49 | 22.22182 | 114.17530 | 8122 ft | 310 kts | 268° |
| 2026-04-24 15:49 | 22.22149 | 114.15304 | 7999 ft | 281 kts | 268° |
| 2026-04-24 15:50 | 22.22118 | 114.13312 | 7981 ft | 252 kts | 268° |
| 2026-04-24 15:50 | 22.22093 | 114.11538 | 7973 ft | 226 kts | 268° |
| 2026-04-24 15:50 | 22.22067 | 114.09921 | 7966 ft | 209 kts | 268° |
| 2026-04-24 15:50 | 22.22041 | 114.08367 | 8009 ft | 208 kts | 268° |
| 2026-04-24 15:51 | 22.22015 | 114.06784 | 8013 ft | 213 kts | 268° |
| 2026-04-24 15:51 | 22.21989 | 114.05183 | 8063 ft | 215 kts | 268° |
| 2026-04-24 15:51 | 22.21962 | 114.03563 | 8007 ft | 217 kts | 268° |
| 2026-04-24 15:51 | 22.21924 | 114.01924 | 7815 ft | 221 kts | 267° |
| 2026-04-24 15:52 | 22.21869 | 114.00272 | 7554 ft | 219 kts | 267° |
| 2026-04-24 15:52 | 22.21814 | 113.98639 | 7308 ft | 216 kts | 267° |
| 2026-04-24 15:52 | 22.21760 | 113.97028 | 7047 ft | 214 kts | 267° |
| 2026-04-24 15:52 | 22.21709 | 113.95440 | 6797 ft | 210 kts | 267° |
| 2026-04-24 15:53 | 22.21657 | 113.93874 | 6549 ft | 207 kts | 267° |
| 2026-04-24 15:53 | 22.21607 | 113.92347 | 6296 ft | 205 kts | 267° |
| 2026-04-24 15:53 | 22.21556 | 113.90825 | 6052 ft | 202 kts | 267° |
| 2026-04-24 15:53 | 22.21680 | 113.89331 | 5867 ft | 203 kts | 290° |
| 2026-04-24 15:54 | 22.22589 | 113.88123 | 5744 ft | 218 kts | 324° |
| 2026-04-24 15:54 | 22.24047 | 113.87611 | 5537 ft | 225 kts | 356° |
| 2026-04-24 15:54 | 22.25536 | 113.88029 | 5354 ft | 221 kts | 28° |
| 2026-04-24 15:54 | 22.26764 | 113.88949 | 5206 ft | 209 kts | 33° |
| 2026-04-24 15:55 | 22.27964 | 113.89843 | 5040 ft | 209 kts | 33° |
| 2026-04-24 15:55 | 22.29152 | 113.90730 | 4870 ft | 206 kts | 36° |
| 2026-04-24 15:55 | 22.30231 | 113.91745 | 4707 ft | 205 kts | 42° |
| 2026-04-24 15:55 | 22.31178 | 113.92849 | 4562 ft | 202 kts | 58° |
| 2026-04-24 15:56 | 22.31555 | 113.94255 | 4354 ft | 188 kts | 86° |
| 2026-04-24 15:56 | 22.31692 | 113.95635 | 4090 ft | 183 kts | 84° |
| 2026-04-24 15:56 | 22.31822 | 113.96977 | 3849 ft | 176 kts | 86° |
| 2026-04-24 15:56 | 22.31920 | 113.98283 | 3659 ft | 175 kts | 87° |
| 2026-04-24 15:57 | 22.32007 | 113.99570 | 3387 ft | 166 kts | 88° |
| 2026-04-24 15:57 | 22.32086 | 114.00764 | 3151 ft | 154 kts | 88° |
| 2026-04-24 15:57 | 22.32159 | 114.01916 | 2985 ft | 155 kts | 88° |
| 2026-04-24 15:57 | 22.32220 | 114.03085 | 2768 ft | 156 kts | 89° |
| 2026-04-24 15:58 | 22.32304 | 114.04230 | 2567 ft | 150 kts | 88° |
| 2026-04-24 15:58 | 22.32380 | 114.05341 | 2363 ft | 147 kts | 88° |
| 2026-04-24 15:58 | 22.32451 | 114.06422 | 2155 ft | 146 kts | 88° |
| 2026-04-24 15:58 | 22.32521 | 114.07508 | 1990 ft | 144 kts | 87° |
| 2026-04-24 15:59 | 22.32590 | 114.08573 | 1779 ft | 140 kts | 86° |
| 2026-04-24 15:59 | 22.32657 | 114.09618 | 1598 ft | 141 kts | 86° |
| 2026-04-24 15:59 | 22.32727 | 114.10676 | 1395 ft | 141 kts | 86° |
| 2026-04-24 15:59 | 22.32794 | 114.11735 | 1207 ft | 142 kts | 86° |
| 2026-04-24 16:00 | 22.32864 | 114.12804 | 1014 ft | 142 kts | 86° |
| 2026-04-24 16:00 | 22.32929 | 114.13851 | 899 ft | 137 kts | 85° |
| 2026-04-24 16:00 | 22.33007 | 114.14879 | 955 ft | 137 kts | 83° |
| 2026-04-24 16:00 | 22.33115 | 114.15917 | 871 ft | 141 kts | 82° |
| 2026-04-24 16:01 | 22.33218 | 114.16978 | 799 ft | 143 kts | 86° |
| 2026-04-24 16:01 | 22.33162 | 114.18049 | 549 ft | 144 kts | 98° |
| 2026-04-24 16:01 | 22.32752 | 114.19006 | 222 ft | 144 kts | 133° |
| 2026-04-24 16:01 | 22.32075 | 114.19756 | 91 ft | 140 kts | 131° |
| 2026-04-24 16:02 | 22.31409 | 114.20481 | 367 ft | 133 kts | 133° |
| 2026-04-24 16:02 | 22.30740 | 114.21201 | 641 ft | 142 kts | 132° |
| 2026-04-24 16:02 | 22.30016 | 114.21974 | 974 ft | 152 kts | 134° |
| 2026-04-24 16:02 | 22.29216 | 114.22805 | 1622 ft | 167 kts | 134° |
| 2026-04-24 16:03 | 22.28339 | 114.23738 | 2317 ft | 188 kts | 136° |
| 2026-04-24 16:03 | 22.27380 | 114.24789 | 2958 ft | 206 kts | 135° |
| 2026-04-24 16:03 | 22.26387 | 114.25970 | 3678 ft | 219 kts | 135° |
| 2026-04-24 16:03 | 22.25329 | 114.27203 | 4301 ft | 228 kts | 136° |
| 2026-04-24 16:04 | 22.24234 | 114.28451 | 4513 ft | 231 kts | 136° |
| 2026-04-24 16:04 | 22.23139 | 114.29735 | 4601 ft | 233 kts | 135° |
| 2026-04-24 16:04 | 22.21973 | 114.30906 | 5039 ft | 233 kts | 151° |
| 2026-04-24 16:04 | 22.20466 | 114.31407 | 5015 ft | 225 kts | 184° |
| 2026-04-24 16:05 | 22.18086 | 114.29707 | 5007 ft | 214 kts | 248° |
| 2026-04-24 16:05 | 22.17750 | 114.28147 | 5013 ft | 218 kts | 268° |
| 2026-04-24 16:06 | 22.18081 | 114.24822 | 5019 ft | 230 kts | 276° |
| 2026-04-24 16:06 | 22.18305 | 114.23137 | 4993 ft | 224 kts | 276° |
| 2026-04-24 16:06 | 22.18683 | 114.19857 | 5006 ft | 220 kts | 274° |
| 2026-04-24 16:07 | 22.18825 | 114.18222 | 4991 ft | 218 kts | 274° |
| 2026-04-24 16:07 | 22.18972 | 114.16598 | 4987 ft | 217 kts | 274° |
| 2026-04-24 16:07 | 22.19271 | 114.13411 | 5006 ft | 214 kts | 274° |
| 2026-04-24 16:08 | 22.19426 | 114.11796 | 5026 ft | 219 kts | 274° |
| 2026-04-24 16:08 | 22.19745 | 114.08520 | 4984 ft | 215 kts | 274° |
| 2026-04-24 16:09 | 22.20043 | 114.05530 | 4975 ft | 190 kts | 274° |
| 2026-04-24 16:09 | 22.20183 | 114.04118 | 4982 ft | 189 kts | 275° |
| 2026-04-24 16:09 | 22.20323 | 114.02702 | 4992 ft | 190 kts | 275° |
| 2026-04-24 16:09 | 22.20463 | 114.01289 | 4989 ft | 190 kts | 275° |
| 2026-04-24 16:10 | 22.20884 | 113.97063 | 4989 ft | 190 kts | 275° |
| 2026-04-24 16:11 | 22.21164 | 113.94240 | 4992 ft | 189 kts | 275° |
| 2026-04-24 16:11 | 22.21304 | 113.92827 | 4987 ft | 189 kts | 274° |
| 2026-04-24 16:11 | 22.21444 | 113.91423 | 4992 ft | 188 kts | 274° |
| 2026-04-24 16:12 | 22.22286 | 113.88857 | 4990 ft | 191 kts | 322° |
| 2026-04-24 16:12 | 22.23578 | 113.88393 | 4994 ft | 206 kts | 357° |
| 2026-04-24 16:12 | 22.26256 | 113.89370 | 4988 ft | 206 kts | 21° |
| 2026-04-24 16:13 | 22.27573 | 113.89981 | 4987 ft | 206 kts | 21° |
| 2026-04-24 16:13 | 22.30046 | 113.91500 | 4789 ft | 208 kts | 45° |
| 2026-04-24 16:14 | 22.31710 | 113.93949 | 4513 ft | 199 kts | 83° |
| 2026-04-24 16:14 | 22.31744 | 113.95435 | 4518 ft | 200 kts | 90° |
| 2026-04-24 16:14 | 22.31934 | 113.98466 | 4016 ft | 190 kts | 87° |
| 2026-04-24 16:15 | 22.31995 | 113.99383 | 3985 ft | 180 kts | 87° |
| 2026-04-24 16:15 | 22.32207 | 114.02384 | 3399 ft | 156 kts | 88° |
| 2026-04-24 16:16 | 22.32329 | 114.04737 | 2930 ft | 158 kts | 90° |
| 2026-04-24 16:16 | 22.32346 | 114.05914 | 2727 ft | 155 kts | 92° |
| 2026-04-24 16:17 | 22.32316 | 114.09361 | 2164 ft | 151 kts | 89° |
| 2026-04-24 16:17 | 22.32513 | 114.11595 | 1907 ft | 152 kts | 84° |
| 2026-04-24 16:18 | 22.32803 | 114.13806 | 1611 ft | 147 kts | 82° |
| 2026-04-24 16:18 | 22.33117 | 114.15970 | 1127 ft | 147 kts | 82° |
| 2026-04-24 16:18 | 22.33219 | 114.17076 | 889 ft | 147 kts | 88° |
| 2026-04-24 16:19 | 22.32688 | 114.19091 | 231 ft | 144 kts | 131° |
| 2026-04-24 16:19 | 22.31997 | 114.19852 | 40 ft | 141 kts | 131° |
| 2026-04-24 16:20 | 22.31016 | 114.20952 | 37 ft | 50 kts | 134° |
| 2026-04-24 16:20 | 22.30835 | 114.21236 | 37 ft | 7 kts | 68° |
| 2026-04-24 16:20 | 22.30878 | 114.21246 | 37 ft | 7 kts | 336° |
| 2026-04-24 16:21 | 22.30964 | 114.21159 | 37 ft | 12 kts | 314° |
| 2026-04-24 16:21 | 22.31040 | 114.21074 | 37 ft | 19 kts | 314° |
| 2026-04-24 16:21 | 22.31140 | 114.20961 | 37 ft | 21 kts | 313° |
| 2026-04-24 16:22 | 22.31241 | 114.20846 | 37 ft | 21 kts | 314° |
| 2026-04-24 16:22 | 22.31437 | 114.20631 | 37 ft | 14 kts | 315° |
| 2026-04-24 16:22 | 22.31490 | 114.20594 | 37 ft | 8 kts | 352° |
| 2026-04-24 16:23 | 22.31541 | 114.20623 | 41 ft | 9 kts | 43° |
| 2026-04-24 16:23 | 22.31575 | 114.20659 | 43 ft | 0 kts | 45° |
| 2026-04-24 16:24 | 22.31581 | 114.20665 | 43 ft | 6 kts | 45° |
| 2026-04-24 16:24 | 22.31635 | 114.20723 | 39 ft | 11 kts | 43° |
| 2026-04-24 16:24 | 22.31687 | 114.20727 | 37 ft | 8 kts | 333° |
| 2026-04-24 16:24 | 22.31731 | 114.20684 | 37 ft | 9 kts | 315° |
| 2026-04-24 16:25 | 22.31777 | 114.20633 | 37 ft | 10 kts | 315° |
| 2026-04-24 16:25 | 22.31828 | 114.20578 | 37 ft | 11 kts | 314° |
| 2026-04-24 16:25 | 22.31884 | 114.20516 | 37 ft | 12 kts | 314° |
| 2026-04-24 16:26 | 22.32012 | 114.20372 | 37 ft | 14 kts | 314° |
| 2026-04-24 16:26 | 22.32084 | 114.20292 | 37 ft | 15 kts | 314° |
| 2026-04-24 16:26 | 22.32239 | 114.20113 | 37 ft | 17 kts | 308° |
| 2026-04-24 16:27 | 22.32312 | 114.20012 | 37 ft | 17 kts | 307° |
| 2026-04-24 16:27 | 22.32406 | 114.19969 | 37 ft | 16 kts | 11° |
| 2026-04-24 16:27 | 22.32510 | 114.20003 | 38 ft | 16 kts | 18° |
| 2026-04-24 16:27 | 22.32613 | 114.20041 | 38 ft | 15 kts | 18° |
| 2026-04-24 16:28 | 22.32699 | 114.20023 | 38 ft | 13 kts | 322° |
| 2026-04-24 16:28 | 22.32764 | 114.19954 | 36 ft | 13 kts | 314° |
| 2026-04-24 16:28 | 22.32909 | 114.19821 | 37 ft | 13 kts | 314° |
| 2026-04-24 16:29 | 22.32920 | 114.19755 | 38 ft | 9 kts | 247° |
| 2026-04-24 16:29 | 22.32876 | 114.19699 | 38 ft | 10 kts | 225° |
| 2026-04-24 16:29 | 22.32760 | 114.19577 | 38 ft | 13 kts | 224° |
| 2026-04-24 16:30 | 22.32712 | 114.19520 | 37 ft | 6 kts | 259° |
| 2026-04-24 16:30 | 22.32737 | 114.19467 | 38 ft | 5 kts | 314° |
| 2026-04-24 16:30 | 22.32750 | 114.19452 | 38 ft | 0 kts | 314° |